createdAt,value
2023-04-24T00:00:04.010Z,22.500000
2023-04-24T00:01:01.162Z,11.250000
2023-04-24T00:02:01.272Z,11.250000
2023-04-24T00:03:01.341Z,11.250000
2023-04-24T00:04:01.558Z,11.250000
2023-04-24T00:05:02.626Z,11.250000
2023-04-24T00:06:00.716Z,11.250000
2023-04-24T00:07:00.185Z,11.250000
2023-04-24T00:08:00.266Z,11.250000
2023-04-24T00:09:00.191Z,11.250000
2023-04-24T00:10:03.190Z,11.250000
2023-04-24T00:11:00.206Z,22.500000
2023-04-24T00:12:00.272Z,22.500000
2023-04-24T00:13:00.219Z,22.500000
2023-04-24T00:14:00.339Z,22.500000
2023-04-24T00:15:03.455Z,22.500000
2023-04-24T00:16:00.306Z,22.500000
2023-04-24T00:17:00.395Z,22.500000
2023-04-24T00:18:00.362Z,11.250000
2023-04-24T00:19:00.244Z,11.250000
2023-04-24T00:20:03.057Z,11.250000
2023-04-24T00:21:00.276Z,11.250000
2023-04-24T00:22:00.411Z,11.250000
2023-04-24T00:23:00.251Z,11.250000
2023-04-24T00:24:00.336Z,11.250000
2023-04-24T00:25:02.767Z,11.250000
2023-04-24T00:26:00.378Z,11.250000
2023-04-24T00:27:00.278Z,11.250000
2023-04-24T00:28:00.408Z,11.250000
2023-04-24T00:29:00.290Z,11.250000
2023-04-24T00:30:04.701Z,22.500000
2023-04-24T00:31:00.295Z,22.500000
2023-04-24T00:32:00.444Z,22.500000
2023-04-24T00:33:00.410Z,33.750000
2023-04-24T00:34:00.374Z,33.750000
2023-04-24T00:35:02.770Z,33.750000
2023-04-24T00:36:03.549Z,11.250000
2023-04-24T00:37:00.319Z,11.250000
2023-04-24T00:38:01.462Z,22.500000
2023-04-24T00:39:00.341Z,22.500000
2023-04-24T00:40:03.482Z,56.250000
2023-04-24T00:41:00.358Z,56.250000
2023-04-24T00:42:00.422Z,56.250000
2023-04-24T00:43:00.363Z,22.500000
2023-04-24T00:44:00.475Z,22.500000
2023-04-24T00:45:03.554Z,22.500000
2023-04-24T00:46:02.626Z,22.500000
2023-04-24T00:47:00.406Z,22.500000
2023-04-24T00:48:03.743Z,11.250000
2023-04-24T00:49:00.412Z,11.250000
2023-04-24T00:50:03.210Z,11.250000
2023-04-24T00:51:00.455Z,22.500000
2023-04-24T00:52:00.732Z,22.500000
2023-04-24T00:53:00.467Z,22.500000
2023-04-24T00:54:00.524Z,22.500000
2023-04-24T00:55:02.991Z,22.500000
2023-04-24T00:56:00.566Z,22.500000
2023-04-24T00:57:00.458Z,11.250000
2023-04-24T00:58:00.538Z,11.250000
2023-04-24T00:59:00.476Z,22.500000
2023-04-24T01:00:03.490Z,22.500000
2023-04-24T01:01:00.555Z,22.500000
2023-04-24T01:02:00.789Z,33.750000
2023-04-24T01:03:00.694Z,33.750000
2023-04-24T01:04:01.009Z,22.500000
2023-04-24T01:05:02.847Z,22.500000
2023-04-24T01:06:00.727Z,22.500000
2023-04-24T01:07:00.522Z,22.500000
2023-04-24T01:08:00.623Z,22.500000
2023-04-24T01:09:00.560Z,22.500000
2023-04-24T01:10:03.349Z,22.500000
2023-04-24T01:11:00.530Z,22.500000
2023-04-24T01:12:00.671Z,22.500000
2023-04-24T01:13:00.548Z,22.500000
2023-04-24T01:14:00.645Z,22.500000
2023-04-24T01:15:02.986Z,22.500000
2023-04-24T01:16:00.659Z,22.500000
2023-04-24T01:17:00.566Z,11.250000
2023-04-24T01:18:00.731Z,11.250000
2023-04-24T01:19:00.560Z,11.250000
2023-04-24T01:20:03.423Z,11.250000
2023-04-24T01:21:00.584Z,11.250000
2023-04-24T01:22:00.666Z,11.250000
2023-04-24T01:23:00.602Z,11.250000
2023-04-24T01:24:00.685Z,11.250000
2023-04-24T01:25:02.957Z,11.250000
2023-04-24T01:26:00.932Z,11.250000
2023-04-24T01:27:00.631Z,22.500000
2023-04-24T01:28:00.704Z,22.500000
2023-04-24T01:29:00.625Z,11.250000
2023-04-24T01:30:04.538Z,11.250000
2023-04-24T01:31:00.660Z,11.250000
2023-04-24T01:32:00.934Z,33.750000
2023-04-24T01:33:00.693Z,33.750000
2023-04-24T01:34:01.787Z,33.750000
2023-04-24T01:35:03.142Z,22.500000
2023-04-24T01:36:00.741Z,22.500000
2023-04-24T01:37:00.688Z,22.500000
2023-04-24T01:38:00.838Z,22.500000
2023-04-24T01:39:00.710Z,22.500000
2023-04-24T01:40:04.565Z,22.500000
2023-04-24T01:41:00.702Z,22.500000
2023-04-24T01:42:00.807Z,22.500000
2023-04-24T01:43:00.709Z,22.500000
2023-04-24T01:44:00.836Z,22.500000
2023-04-24T01:45:03.152Z,45.000000
2023-04-24T01:46:00.817Z,45.000000
2023-04-24T01:47:00.854Z,67.500000
2023-04-24T01:48:00.898Z,67.500000
2023-04-24T01:49:00.742Z,78.750000
2023-04-24T01:50:04.022Z,78.750000
2023-04-24T01:51:00.757Z,78.750000
2023-04-24T01:52:00.849Z,67.500000
2023-04-24T01:53:00.760Z,67.500000
2023-04-24T01:54:00.850Z,67.500000
2023-04-24T01:55:03.271Z,67.500000
2023-04-24T01:56:00.852Z,67.500000
2023-04-24T01:57:00.785Z,67.500000
2023-04-24T01:58:00.850Z,67.500000
2023-04-24T01:59:00.772Z,78.750000
2023-04-24T02:00:03.944Z,78.750000
2023-04-24T02:01:00.827Z,78.750000
2023-04-24T02:02:01.201Z,90.000000
2023-04-24T02:03:00.914Z,90.000000
2023-04-24T02:04:08.348Z,90.000000
2023-04-24T02:05:03.267Z,101.250000
2023-04-24T02:06:00.920Z,101.250000
2023-04-24T02:07:00.832Z,67.500000
2023-04-24T02:08:00.950Z,67.500000
2023-04-24T02:09:00.860Z,67.500000
2023-04-24T02:10:05.767Z,78.750000
2023-04-24T02:11:00.852Z,78.750000
2023-04-24T02:12:00.941Z,67.500000
2023-04-24T02:13:00.869Z,67.500000
2023-04-24T02:14:00.939Z,67.500000
2023-04-24T02:15:03.190Z,56.250000
2023-04-24T02:16:00.984Z,56.250000
2023-04-24T02:17:00.864Z,33.750000
2023-04-24T02:18:01.001Z,33.750000
2023-04-24T02:19:00.917Z,67.500000
2023-04-24T02:20:03.902Z,67.500000
2023-04-24T02:21:00.911Z,67.500000
2023-04-24T02:22:01.009Z,90.000000
2023-04-24T02:23:00.939Z,90.000000
2023-04-24T02:24:01.046Z,67.500000
2023-04-24T02:25:03.592Z,67.500000
2023-04-24T02:26:01.054Z,67.500000
2023-04-24T02:27:00.942Z,78.750000
2023-04-24T02:28:01.034Z,78.750000
2023-04-24T02:29:00.946Z,78.750000
2023-04-24T02:30:04.436Z,67.500000
2023-04-24T02:31:00.955Z,67.500000
2023-04-24T02:32:01.137Z,67.500000
2023-04-24T02:33:00.982Z,67.500000
2023-04-24T02:34:01.046Z,67.500000
2023-04-24T02:35:04.151Z,78.750000
2023-04-24T02:36:01.087Z,78.750000
2023-04-24T02:37:00.980Z,78.750000
2023-04-24T02:38:01.271Z,78.750000
2023-04-24T02:39:01.008Z,78.750000
2023-04-24T02:40:03.668Z,33.750000
2023-04-24T02:41:01.043Z,33.750000
2023-04-24T02:42:01.106Z,33.750000
2023-04-24T02:43:01.029Z,33.750000
2023-04-24T02:44:01.300Z,33.750000
2023-04-24T02:45:03.553Z,78.750000
2023-04-24T02:46:01.219Z,78.750000
2023-04-24T02:47:01.071Z,78.750000
2023-04-24T02:48:01.150Z,56.250000
2023-04-24T02:49:01.053Z,56.250000
2023-04-24T02:50:04.196Z,56.250000
2023-04-24T02:51:01.098Z,56.250000
2023-04-24T02:52:01.146Z,56.250000
2023-04-24T02:53:01.089Z,90.000000
2023-04-24T02:54:01.197Z,90.000000
2023-04-24T02:55:03.616Z,67.500000
2023-04-24T02:56:01.212Z,67.500000
2023-04-24T02:57:01.114Z,67.500000
2023-04-24T02:58:01.188Z,67.500000
2023-04-24T02:59:01.121Z,67.500000
2023-04-24T03:00:04.756Z,67.500000
2023-04-24T03:01:01.157Z,90.000000
2023-04-24T03:02:01.228Z,90.000000
2023-04-24T03:03:01.448Z,67.500000
2023-04-24T03:04:01.533Z,67.500000
2023-04-24T03:05:02.568Z,78.750000
2023-04-24T03:06:00.262Z,78.750000
2023-04-24T03:07:00.175Z,78.750000
2023-04-24T03:08:00.247Z,78.750000
2023-04-24T03:09:00.201Z,78.750000
2023-04-24T03:10:03.293Z,78.750000
2023-04-24T03:11:00.183Z,78.750000
2023-04-24T03:12:00.303Z,78.750000
2023-04-24T03:13:00.212Z,78.750000
2023-04-24T03:14:00.295Z,78.750000
2023-04-24T03:15:02.541Z,90.000000
2023-04-24T03:16:00.337Z,90.000000
2023-04-24T03:17:00.249Z,90.000000
2023-04-24T03:18:00.781Z,78.750000
2023-04-24T03:19:00.252Z,78.750000
2023-04-24T03:20:03.249Z,78.750000
2023-04-24T03:21:00.267Z,78.750000
2023-04-24T03:22:00.755Z,78.750000
2023-04-24T03:23:00.259Z,78.750000
2023-04-24T03:24:00.735Z,78.750000
2023-04-24T03:25:02.638Z,78.750000
2023-04-24T03:26:00.414Z,56.250000
2023-04-24T03:27:00.287Z,56.250000
2023-04-24T03:28:00.371Z,56.250000
2023-04-24T03:29:00.310Z,56.250000
2023-04-24T03:30:04.042Z,56.250000
2023-04-24T03:31:00.332Z,56.250000
2023-04-24T03:32:00.477Z,56.250000
2023-04-24T03:33:00.443Z,90.000000
2023-04-24T03:34:00.416Z,90.000000
2023-04-24T03:35:02.727Z,78.750000
2023-04-24T03:36:00.423Z,78.750000
2023-04-24T03:37:00.352Z,78.750000
2023-04-24T03:38:00.447Z,78.750000
2023-04-24T03:39:00.381Z,78.750000
2023-04-24T03:40:04.132Z,78.750000
2023-04-24T03:41:00.384Z,78.750000
2023-04-24T03:42:00.689Z,78.750000
2023-04-24T03:43:00.402Z,67.500000
2023-04-24T03:44:00.487Z,67.500000
2023-04-24T03:45:02.783Z,67.500000
2023-04-24T03:46:00.532Z,67.500000
2023-04-24T03:47:00.415Z,67.500000
2023-04-24T03:48:00.619Z,56.250000
2023-04-24T03:49:00.407Z,56.250000
2023-04-24T03:50:03.539Z,56.250000
2023-04-24T03:51:00.462Z,56.250000
2023-04-24T03:52:00.476Z,56.250000
2023-04-24T03:53:00.416Z,56.250000
2023-04-24T03:54:00.526Z,56.250000
2023-04-24T03:55:02.793Z,56.250000
2023-04-24T03:56:00.559Z,56.250000
2023-04-24T03:57:00.444Z,56.250000
2023-04-24T03:58:00.535Z,56.250000
2023-04-24T03:59:00.451Z,45.000000
2023-04-24T04:00:03.501Z,45.000000
2023-04-24T04:01:00.484Z,56.250000
2023-04-24T04:02:00.600Z,56.250000
2023-04-24T04:03:00.770Z,90.000000
2023-04-24T04:04:00.692Z,90.000000
2023-04-24T04:05:03.192Z,90.000000
2023-04-24T04:06:00.595Z,90.000000
2023-04-24T04:07:00.498Z,90.000000
2023-04-24T04:08:00.618Z,90.000000
2023-04-24T04:09:00.546Z,90.000000
2023-04-24T04:10:03.483Z,90.000000
2023-04-24T04:11:00.541Z,56.250000
2023-04-24T04:12:00.637Z,56.250000
2023-04-24T04:13:00.539Z,22.500000
2023-04-24T04:14:00.704Z,22.500000
2023-04-24T04:15:03.644Z,22.500000
2023-04-24T04:16:00.777Z,22.500000
2023-04-24T04:17:00.563Z,22.500000
2023-04-24T04:18:00.663Z,22.500000
2023-04-24T04:19:00.589Z,56.250000
2023-04-24T04:20:03.484Z,56.250000
2023-04-24T04:21:00.607Z,56.250000
2023-04-24T04:22:00.725Z,45.000000
2023-04-24T04:23:00.599Z,45.000000
2023-04-24T04:24:00.691Z,33.750000
2023-04-24T04:25:04.329Z,33.750000
2023-04-24T04:26:00.689Z,33.750000
2023-04-24T04:27:00.613Z,33.750000
2023-04-24T04:28:00.753Z,33.750000
2023-04-24T04:29:00.623Z,33.750000
2023-04-24T04:30:03.426Z,33.750000
2023-04-24T04:31:00.676Z,33.750000
2023-04-24T04:32:00.742Z,45.000000
2023-04-24T04:33:00.797Z,45.000000
2023-04-24T04:34:00.744Z,22.500000
2023-04-24T04:35:03.170Z,22.500000
2023-04-24T04:36:01.850Z,22.500000
2023-04-24T04:37:00.675Z,22.500000
2023-04-24T04:38:00.748Z,22.500000
2023-04-24T04:39:00.720Z,22.500000
2023-04-24T04:40:03.812Z,22.500000
2023-04-24T04:41:00.695Z,22.500000
2023-04-24T04:42:00.779Z,33.750000
2023-04-24T04:43:00.746Z,33.750000
2023-04-24T04:44:00.756Z,33.750000
2023-04-24T04:45:03.269Z,45.000000
2023-04-24T04:46:00.849Z,45.000000
2023-04-24T04:47:00.707Z,45.000000
2023-04-24T04:48:00.919Z,45.000000
2023-04-24T04:49:00.760Z,33.750000
2023-04-24T04:50:03.630Z,33.750000
2023-04-24T04:51:00.755Z,33.750000
2023-04-24T04:52:00.831Z,22.500000
2023-04-24T04:53:00.746Z,22.500000
2023-04-24T04:54:00.873Z,22.500000
2023-04-24T04:55:03.264Z,22.500000
2023-04-24T04:56:00.868Z,22.500000
2023-04-24T04:57:01.334Z,22.500000
2023-04-24T04:58:00.829Z,22.500000
2023-04-24T04:59:00.780Z,11.250000
2023-04-24T05:00:04.084Z,11.250000
2023-04-24T05:01:00.843Z,11.250000
2023-04-24T05:02:00.914Z,22.500000
2023-04-24T05:03:09.326Z,22.500000
2023-04-24T05:04:01.021Z,22.500000
2023-04-24T05:05:03.489Z,22.500000
2023-04-24T05:06:00.926Z,22.500000
2023-04-24T05:07:00.864Z,22.500000
2023-04-24T05:08:00.946Z,22.500000
2023-04-24T05:09:00.874Z,33.750000
2023-04-24T05:10:03.849Z,33.750000
2023-04-24T05:11:00.880Z,45.000000
2023-04-24T05:12:00.975Z,45.000000
2023-04-24T05:13:00.925Z,45.000000
2023-04-24T05:14:00.969Z,33.750000
2023-04-24T05:15:03.344Z,33.750000
2023-04-24T05:16:00.980Z,33.750000
2023-04-24T05:17:00.988Z,45.000000
2023-04-24T05:18:01.073Z,45.000000
2023-04-24T05:19:00.979Z,45.000000
2023-04-24T05:20:04.855Z,45.000000
2023-04-24T05:21:00.980Z,45.000000
2023-04-24T05:22:01.020Z,45.000000
2023-04-24T05:23:00.956Z,45.000000
2023-04-24T05:24:01.050Z,22.500000
2023-04-24T05:25:03.483Z,22.500000
2023-04-24T05:26:01.058Z,22.500000
2023-04-24T05:27:00.965Z,22.500000
2023-04-24T05:28:01.046Z,22.500000
2023-04-24T05:29:00.995Z,22.500000
2023-04-24T05:30:04.353Z,22.500000
2023-04-24T05:31:01.058Z,33.750000
2023-04-24T05:32:01.143Z,33.750000
2023-04-24T05:33:02.410Z,33.750000
2023-04-24T05:34:01.104Z,33.750000
2023-04-24T05:35:03.401Z,33.750000
2023-04-24T05:36:01.156Z,33.750000
2023-04-24T05:37:01.031Z,22.500000
2023-04-24T05:38:01.101Z,22.500000
2023-04-24T05:39:01.049Z,22.500000
2023-04-24T05:40:04.009Z,22.500000
2023-04-24T05:41:01.048Z,22.500000
2023-04-24T05:42:01.155Z,33.750000
2023-04-24T05:43:01.050Z,33.750000
2023-04-24T05:44:01.148Z,11.250000
2023-04-24T05:45:03.513Z,11.250000
2023-04-24T05:46:01.189Z,11.250000
2023-04-24T05:47:01.070Z,33.750000
2023-04-24T05:48:01.373Z,33.750000
2023-04-24T05:49:01.092Z,33.750000
2023-04-24T05:50:04.387Z,33.750000
2023-04-24T05:51:01.092Z,33.750000
2023-04-24T05:52:01.170Z,33.750000
2023-04-24T05:53:01.106Z,33.750000
2023-04-24T05:54:01.217Z,22.500000
2023-04-24T05:55:03.488Z,22.500000
2023-04-24T05:56:01.210Z,22.500000
2023-04-24T05:57:01.126Z,45.000000
2023-04-24T05:58:01.191Z,45.000000
2023-04-24T05:59:01.143Z,45.000000
2023-04-24T06:00:04.359Z,22.500000
2023-04-24T06:01:00.166Z,22.500000
2023-04-24T06:02:00.321Z,22.500000
2023-04-24T06:03:00.544Z,45.000000
2023-04-24T06:04:00.464Z,45.000000
2023-04-24T06:05:02.939Z,56.250000
2023-04-24T06:06:00.305Z,56.250000
2023-04-24T06:07:00.193Z,56.250000
2023-04-24T06:08:00.299Z,56.250000
2023-04-24T06:09:00.229Z,56.250000
2023-04-24T06:10:03.190Z,56.250000
2023-04-24T06:11:01.373Z,56.250000
2023-04-24T06:12:00.331Z,56.250000
2023-04-24T06:13:00.248Z,22.500000
2023-04-24T06:14:00.334Z,22.500000
2023-04-24T06:15:05.561Z,22.500000
2023-04-24T06:16:00.353Z,22.500000
2023-04-24T06:17:00.416Z,22.500000
2023-04-24T06:18:00.452Z,22.500000
2023-04-24T06:19:00.267Z,22.500000
2023-04-24T06:20:03.051Z,33.750000
2023-04-24T06:21:00.320Z,33.750000
2023-04-24T06:22:00.393Z,33.750000
2023-04-24T06:23:00.300Z,33.750000
2023-04-24T06:24:00.400Z,33.750000
2023-04-24T06:25:02.980Z,22.500000
2023-04-24T06:26:00.381Z,22.500000
2023-04-24T06:27:00.376Z,22.500000
2023-04-24T06:28:00.432Z,33.750000
2023-04-24T06:29:00.328Z,33.750000
2023-04-24T06:30:03.064Z,33.750000
2023-04-24T06:31:00.342Z,22.500000
2023-04-24T06:32:00.485Z,22.500000
2023-04-24T06:33:09.292Z,45.000000
2023-04-24T06:34:00.422Z,45.000000
2023-04-24T06:35:03.067Z,45.000000
2023-04-24T06:36:00.464Z,45.000000
2023-04-24T06:37:00.364Z,45.000000
2023-04-24T06:38:00.452Z,33.750000
2023-04-24T06:39:00.403Z,33.750000
2023-04-24T06:40:03.355Z,45.000000
2023-04-24T06:41:00.394Z,45.000000
2023-04-24T06:42:00.528Z,45.000000
2023-04-24T06:43:00.400Z,67.500000
2023-04-24T06:44:00.469Z,67.500000
2023-04-24T06:45:02.986Z,56.250000
2023-04-24T06:46:00.528Z,56.250000
2023-04-24T06:47:00.409Z,56.250000
2023-04-24T06:48:00.623Z,45.000000
2023-04-24T06:49:00.430Z,45.000000
2023-04-24T06:50:03.520Z,56.250000
2023-04-24T06:51:00.429Z,56.250000
2023-04-24T06:52:00.535Z,56.250000
2023-04-24T06:53:00.436Z,56.250000
2023-04-24T06:54:00.542Z,56.250000
2023-04-24T06:55:04.562Z,56.250000
2023-04-24T06:56:00.532Z,78.750000
2023-04-24T06:57:00.768Z,78.750000
2023-04-24T06:58:00.527Z,67.500000
2023-04-24T06:59:00.461Z,67.500000
2023-04-24T07:00:04.195Z,67.500000
2023-04-24T07:01:00.529Z,67.500000
2023-04-24T07:02:00.603Z,67.500000
2023-04-24T07:03:00.759Z,45.000000
2023-04-24T07:04:00.822Z,45.000000
2023-04-24T07:05:03.090Z,56.250000
2023-04-24T07:06:00.600Z,56.250000
2023-04-24T07:07:00.687Z,56.250000
2023-04-24T07:08:00.582Z,78.750000
2023-04-24T07:09:00.571Z,78.750000
2023-04-24T07:10:04.312Z,78.750000
2023-04-24T07:11:00.554Z,78.750000
2023-04-24T07:12:00.652Z,78.750000
2023-04-24T07:13:00.586Z,78.750000
2023-04-24T07:14:00.647Z,78.750000
2023-04-24T07:15:03.061Z,45.000000
2023-04-24T07:16:00.669Z,45.000000
2023-04-24T07:17:00.590Z,45.000000
2023-04-24T07:18:02.584Z,56.250000
2023-04-24T07:19:00.619Z,56.250000
2023-04-24T07:20:03.770Z,78.750000
2023-04-24T07:21:00.627Z,78.750000
2023-04-24T07:22:00.690Z,78.750000
2023-04-24T07:23:00.635Z,67.500000
2023-04-24T07:24:00.701Z,67.500000
2023-04-24T07:25:03.002Z,67.500000
2023-04-24T07:26:00.742Z,67.500000
2023-04-24T07:27:00.651Z,67.500000
2023-04-24T07:28:00.753Z,67.500000
2023-04-24T07:29:00.651Z,78.750000
2023-04-24T07:30:03.822Z,78.750000
2023-04-24T07:31:00.667Z,56.250000
2023-04-24T07:32:04.163Z,56.250000
2023-04-24T07:33:00.707Z,67.500000
2023-04-24T07:34:05.220Z,67.500000
2023-04-24T07:35:03.208Z,67.500000
2023-04-24T07:36:00.804Z,90.000000
2023-04-24T07:37:00.711Z,90.000000
2023-04-24T07:38:01.207Z,90.000000
2023-04-24T07:39:00.713Z,67.500000
2023-04-24T07:40:03.897Z,67.500000
2023-04-24T07:41:00.723Z,67.500000
2023-04-24T07:42:00.891Z,67.500000
2023-04-24T07:43:00.737Z,45.000000
2023-04-24T07:44:03.173Z,45.000000
2023-04-24T07:45:03.212Z,45.000000
2023-04-24T07:46:00.832Z,67.500000
2023-04-24T07:47:00.789Z,67.500000
2023-04-24T07:48:00.921Z,67.500000
2023-04-24T07:49:12.144Z,67.500000
2023-04-24T07:50:04.570Z,67.500000
2023-04-24T07:51:00.811Z,101.250000
2023-04-24T07:52:00.980Z,101.250000
2023-04-24T07:53:00.795Z,101.250000
2023-04-24T07:54:01.612Z,101.250000
2023-04-24T07:55:03.347Z,101.250000
2023-04-24T07:56:03.172Z,56.250000
2023-04-24T07:57:00.823Z,56.250000
2023-04-24T07:58:02.737Z,56.250000
2023-04-24T07:59:00.807Z,67.500000
2023-04-24T08:00:03.670Z,67.500000
2023-04-24T08:01:00.844Z,45.000000
2023-04-24T08:02:00.944Z,45.000000
2023-04-24T08:03:01.050Z,45.000000
2023-04-24T08:04:01.297Z,33.750000
2023-04-24T08:05:04.259Z,33.750000
2023-04-24T08:06:01.092Z,78.750000
2023-04-24T08:07:00.874Z,78.750000
2023-04-24T08:08:00.944Z,78.750000
2023-04-24T08:09:00.896Z,56.250000
2023-04-24T08:10:03.631Z,56.250000
2023-04-24T08:11:00.925Z,56.250000
2023-04-24T08:12:00.974Z,45.000000
2023-04-24T08:13:00.914Z,45.000000
2023-04-24T08:14:01.041Z,67.500000
2023-04-24T08:15:03.617Z,67.500000
2023-04-24T08:16:01.081Z,78.750000
2023-04-24T08:17:00.924Z,78.750000
2023-04-24T08:18:01.444Z,78.750000
2023-04-24T08:19:00.927Z,78.750000
2023-04-24T08:20:03.759Z,78.750000
2023-04-24T08:21:00.983Z,78.750000
2023-04-24T08:22:03.144Z,78.750000
2023-04-24T08:23:00.960Z,78.750000
2023-04-24T08:24:01.920Z,56.250000
2023-04-24T08:25:05.054Z,56.250000
2023-04-24T08:26:01.059Z,45.000000
2023-04-24T08:27:01.001Z,45.000000
2023-04-24T08:28:01.745Z,67.500000
2023-04-24T08:29:00.991Z,67.500000
2023-04-24T08:30:07.676Z,67.500000
2023-04-24T08:31:01.027Z,90.000000
2023-04-24T08:32:01.683Z,90.000000
2023-04-24T08:33:01.042Z,90.000000
2023-04-24T08:34:01.773Z,90.000000
2023-04-24T08:35:03.494Z,90.000000
2023-04-24T08:36:02.222Z,78.750000
2023-04-24T08:37:01.046Z,78.750000
2023-04-24T08:38:01.134Z,78.750000
2023-04-24T08:39:01.058Z,78.750000
2023-04-24T08:40:04.666Z,78.750000
2023-04-24T08:41:01.067Z,78.750000
2023-04-24T08:42:01.150Z,67.500000
2023-04-24T08:43:01.088Z,67.500000
2023-04-24T08:44:02.004Z,67.500000
2023-04-24T08:45:05.369Z,90.000000
2023-04-24T08:46:06.011Z,90.000000
2023-04-24T08:47:01.091Z,90.000000
2023-04-24T08:48:01.299Z,90.000000
2023-04-24T08:49:01.103Z,78.750000
2023-04-24T08:50:05.660Z,78.750000
2023-04-24T08:51:01.147Z,78.750000
2023-04-24T08:52:01.978Z,67.500000
2023-04-24T08:53:01.245Z,67.500000
2023-04-24T08:54:02.457Z,67.500000
2023-04-24T08:55:03.610Z,67.500000
2023-04-24T08:56:03.000Z,67.500000
2023-04-24T08:57:01.153Z,67.500000
2023-04-24T08:58:04.946Z,67.500000
2023-04-24T08:59:01.149Z,67.500000
2023-04-24T09:00:12.379Z,67.500000
2023-04-24T09:01:00.309Z,67.500000
2023-04-24T09:02:00.721Z,90.000000
2023-04-24T09:03:00.359Z,90.000000
2023-04-24T09:04:00.842Z,90.000000
2023-04-24T09:05:02.731Z,67.500000
2023-04-24T09:06:00.358Z,67.500000
2023-04-24T09:07:00.215Z,67.500000
2023-04-24T09:08:00.907Z,67.500000
2023-04-24T09:09:00.233Z,67.500000
2023-04-24T09:10:03.612Z,45.000000
2023-04-24T09:11:00.270Z,45.000000
2023-04-24T09:12:00.376Z,78.750000
2023-04-24T09:13:00.256Z,78.750000
2023-04-24T09:14:00.507Z,78.750000
2023-04-24T09:15:03.056Z,90.000000
2023-04-24T09:16:00.372Z,90.000000
2023-04-24T09:17:00.299Z,78.750000
2023-04-24T09:18:00.434Z,78.750000
2023-04-24T09:19:00.282Z,78.750000
2023-04-24T09:20:03.296Z,90.000000
2023-04-24T09:21:00.293Z,90.000000
2023-04-24T09:22:00.371Z,90.000000
2023-04-24T09:23:00.314Z,78.750000
2023-04-24T09:24:00.424Z,78.750000
2023-04-24T09:25:02.876Z,78.750000
2023-04-24T09:26:00.425Z,78.750000
2023-04-24T09:27:00.348Z,78.750000
2023-04-24T09:28:00.406Z,78.750000
2023-04-24T09:29:00.341Z,78.750000
2023-04-24T09:30:03.342Z,67.500000
2023-04-24T09:31:00.347Z,67.500000
2023-04-24T09:32:00.495Z,67.500000
2023-04-24T09:33:00.426Z,67.500000
2023-04-24T09:34:01.950Z,67.500000
2023-04-24T09:35:02.784Z,78.750000
2023-04-24T09:36:00.482Z,78.750000
2023-04-24T09:37:00.395Z,78.750000
2023-04-24T09:38:00.490Z,78.750000
2023-04-24T09:39:00.407Z,78.750000
2023-04-24T09:40:03.521Z,67.500000
2023-04-24T09:41:00.391Z,67.500000
2023-04-24T09:42:00.486Z,67.500000
2023-04-24T09:43:00.411Z,56.250000
2023-04-24T09:44:00.507Z,56.250000
2023-04-24T09:46:00.513Z,78.750000
2023-04-24T09:47:00.452Z,67.500000
2023-04-24T09:48:00.622Z,67.500000
2023-04-24T09:49:00.431Z,67.500000
2023-04-24T09:50:03.433Z,78.750000
2023-04-24T09:51:00.457Z,78.750000
2023-04-24T09:52:00.520Z,78.750000
2023-04-24T09:53:00.475Z,78.750000
2023-04-24T09:54:00.527Z,78.750000
2023-04-24T09:55:03.854Z,67.500000
2023-04-24T09:56:00.562Z,67.500000
2023-04-24T09:57:00.485Z,67.500000
2023-04-24T09:58:00.545Z,67.500000
2023-04-24T09:59:00.467Z,67.500000
2023-04-24T10:00:03.492Z,56.250000
2023-04-24T10:01:00.590Z,56.250000
2023-04-24T10:02:00.725Z,56.250000
2023-04-24T10:03:00.624Z,67.500000
2023-04-24T10:04:00.597Z,67.500000
2023-04-24T10:05:03.346Z,56.250000
2023-04-24T10:06:00.653Z,56.250000
2023-04-24T10:07:00.546Z,78.750000
2023-04-24T10:08:00.622Z,78.750000
2023-04-24T10:09:00.551Z,78.750000
2023-04-24T10:10:03.432Z,90.000000
2023-04-24T10:11:00.560Z,90.000000
2023-04-24T10:12:00.647Z,90.000000
2023-04-24T10:13:00.553Z,78.750000
2023-04-24T10:14:00.651Z,78.750000
2023-04-24T10:15:02.989Z,67.500000
2023-04-24T10:16:00.666Z,67.500000
2023-04-24T10:17:00.580Z,67.500000
2023-04-24T10:18:00.769Z,67.500000
2023-04-24T10:19:00.599Z,67.500000
2023-04-24T10:20:03.501Z,67.500000
2023-04-24T10:21:00.622Z,67.500000
2023-04-24T10:22:00.689Z,67.500000
2023-04-24T10:23:00.642Z,67.500000
2023-04-24T10:24:00.739Z,67.500000
2023-04-24T10:25:03.013Z,67.500000
2023-04-24T10:26:00.717Z,78.750000
2023-04-24T10:27:00.643Z,78.750000
2023-04-24T10:28:00.720Z,78.750000
2023-04-24T10:29:00.644Z,78.750000
2023-04-24T10:30:03.558Z,78.750000
2023-04-24T10:31:00.715Z,90.000000
2023-04-24T10:32:00.748Z,90.000000
2023-04-24T10:33:00.707Z,67.500000
2023-04-24T10:34:00.753Z,67.500000
2023-04-24T10:35:03.052Z,67.500000
2023-04-24T10:36:00.771Z,67.500000
2023-04-24T10:37:00.684Z,67.500000
2023-04-24T10:38:00.790Z,56.250000
2023-04-24T10:39:00.729Z,56.250000
2023-04-24T10:40:04.190Z,67.500000
2023-04-24T10:41:00.709Z,78.750000
2023-04-24T10:42:00.792Z,78.750000
2023-04-24T10:43:00.719Z,67.500000
2023-04-24T10:44:00.837Z,67.500000
2023-04-24T10:45:04.864Z,67.500000
2023-04-24T10:46:00.812Z,67.500000
2023-04-24T10:47:00.816Z,67.500000
2023-04-24T10:48:01.431Z,67.500000
2023-04-24T10:49:00.771Z,67.500000
2023-04-24T10:50:04.339Z,67.500000
2023-04-24T10:51:00.780Z,78.750000
2023-04-24T10:52:00.866Z,78.750000
2023-04-24T10:53:00.786Z,56.250000
2023-04-24T10:54:00.907Z,56.250000
2023-04-24T10:55:03.325Z,67.500000
2023-04-24T10:56:00.905Z,67.500000
2023-04-24T10:57:00.840Z,67.500000
2023-04-24T10:58:00.896Z,56.250000
2023-04-24T10:59:00.840Z,56.250000
2023-04-24T11:00:04.988Z,56.250000
2023-04-24T11:01:00.933Z,78.750000
2023-04-24T11:02:01.003Z,78.750000
2023-04-24T11:03:00.996Z,67.500000
2023-04-24T11:04:01.008Z,67.500000
2023-04-24T11:05:03.258Z,67.500000
2023-04-24T11:06:00.942Z,90.000000
2023-04-24T11:07:00.862Z,90.000000
2023-04-24T11:08:05.242Z,90.000000
2023-04-24T11:09:00.875Z,90.000000
2023-04-24T11:10:03.733Z,90.000000
2023-04-24T11:11:00.886Z,101.250000
2023-04-24T11:12:02.191Z,101.250000
2023-04-24T11:13:00.897Z,101.250000
2023-04-24T11:14:01.019Z,78.750000
2023-04-24T11:15:04.325Z,78.750000
2023-04-24T11:16:01.615Z,67.500000
2023-04-24T11:17:00.984Z,67.500000
2023-04-24T11:18:03.215Z,45.000000
2023-04-24T11:19:00.908Z,45.000000
2023-04-24T11:20:15.371Z,45.000000
2023-04-24T11:21:01.125Z,67.500000
2023-04-24T11:22:01.486Z,67.500000
2023-04-24T11:23:00.956Z,67.500000
2023-04-24T11:24:01.917Z,90.000000